sensor_id;sensor_type;location;lat;lon;timestamp;pressure;altitude;pressure_sealevel;temperature;humidity
7309;BME280;3695;53.330;9.876;2023-12-29T00:02:08;99445.47;;;13.41;59.12
7309;BME280;3695;53.330;9.876;2023-12-29T00:04:34;99446.25;;;13.51;59.29
7309;BME280;3695;53.330;9.876;2023-12-29T00:07:01;99440.06;;;13.53;58.75
7309;BME280;3695;53.330;9.876;2023-12-29T00:09:28;99434.84;;;13.50;58.49
7309;BME280;3695;53.330;9.876;2023-12-29T00:11:54;99431.97;;;13.70;58.62
7309;BME280;3695;53.330;9.876;2023-12-29T00:14:21;99448.69;;;13.72;57.86
7309;BME280;3695;53.330;9.876;2023-12-29T00:16:47;99439.06;;;13.68;58.05
7309;BME280;3695;53.330;9.876;2023-12-29T00:19:15;99436.31;;;13.75;57.98
7309;BME280;3695;53.330;9.876;2023-12-29T00:21:42;99432.84;;;13.73;57.67
7309;BME280;3695;53.330;9.876;2023-12-29T00:24:08;99416.16;;;13.70;57.87
7309;BME280;3695;53.330;9.876;2023-12-29T00:26:35;99439.72;;;13.86;58.11
7309;BME280;3695;53.330;9.876;2023-12-29T00:29:01;99406.41;;;13.76;58.22
7309;BME280;3695;53.330;9.876;2023-12-29T00:31:28;99403.75;;;13.79;58.00
7309;BME280;3695;53.330;9.876;2023-12-29T00:33:55;99404.66;;;13.75;58.14
7309;BME280;3695;53.330;9.876;2023-12-29T00:36:23;99405.41;;;13.86;58.28
7309;BME280;3695;53.330;9.876;2023-12-29T00:38:49;99403.75;;;13.78;58.08
7309;BME280;3695;53.330;9.876;2023-12-29T00:41:16;99393.13;;;13.84;58.36
7309;BME280;3695;53.330;9.876;2023-12-29T00:43:42;99397.53;;;13.83;58.36
7309;BME280;3695;53.330;9.876;2023-12-29T00:46:09;99399.22;;;13.88;58.11
7309;BME280;3695;53.330;9.876;2023-12-29T00:48:35;99399.28;;;13.86;57.98
7309;BME280;3695;53.330;9.876;2023-12-29T00:51:03;99382.63;;;13.79;58.24
7309;BME280;3695;53.330;9.876;2023-12-29T00:53:31;99381.81;;;13.71;57.81
7309;BME280;3695;53.330;9.876;2023-12-29T00:55:59;99385.28;;;13.76;58.52
7309;BME280;3695;53.330;9.876;2023-12-29T00:58:26;99379.16;;;13.73;58.42
7309;BME280;3695;53.330;9.876;2023-12-29T01:00:52;99401.19;;;13.70;58.54
7309;BME280;3695;53.330;9.876;2023-12-29T01:03:20;99388.81;;;13.75;58.31
7309;BME280;3695;53.330;9.876;2023-12-29T01:05:47;99374.72;;;13.75;58.44
7309;BME280;3695;53.330;9.876;2023-12-29T01:08:13;99377.41;;;13.73;58.76
7309;BME280;3695;53.330;9.876;2023-12-29T01:10:41;99367.75;;;13.69;58.96
7309;BME280;3695;53.330;9.876;2023-12-29T01:13:08;99370.38;;;13.69;59.06
7309;BME280;3695;53.330;9.876;2023-12-29T01:15:34;99376.47;;;13.77;59.01
7309;BME280;3695;53.330;9.876;2023-12-29T01:18:01;99375.78;;;13.60;59.61
7309;BME280;3695;53.330;9.876;2023-12-29T01:20:27;99370.44;;;13.63;59.37
7309;BME280;3695;53.330;9.876;2023-12-29T01:22:54;99382.00;;;13.56;59.98
7309;BME280;3695;53.330;9.876;2023-12-29T01:25:20;99392.44;;;13.65;59.69
7309;BME280;3695;53.330;9.876;2023-12-29T01:27:48;99377.59;;;13.55;59.83
7309;BME280;3695;53.330;9.876;2023-12-29T01:30:15;99381.75;;;13.76;59.73
7309;BME280;3695;53.330;9.876;2023-12-29T01:32:42;99378.34;;;13.66;59.63
7309;BME280;3695;53.330;9.876;2023-12-29T01:35:08;99372.94;;;13.78;59.42
7309;BME280;3695;53.330;9.876;2023-12-29T01:37:35;99387.03;;;13.79;59.58
7309;BME280;3695;53.330;9.876;2023-12-29T01:40:01;99371.25;;;13.71;59.21
7309;BME280;3695;53.330;9.876;2023-12-29T01:42:28;99382.75;;;13.66;59.59
7309;BME280;3695;53.330;9.876;2023-12-29T01:44:56;99382.56;;;13.82;59.49
7309;BME280;3695;53.330;9.876;2023-12-29T01:47:23;99371.13;;;13.83;59.13
7309;BME280;3695;53.330;9.876;2023-12-29T01:49:50;99371.06;;;13.86;59.10
7309;BME280;3695;53.330;9.876;2023-12-29T01:52:17;99381.88;;;13.65;59.75
7309;BME280;3695;53.330;9.876;2023-12-29T01:54:46;99375.84;;;13.56;60.50
7309;BME280;3695;53.330;9.876;2023-12-29T01:57:14;99376.91;;;13.35;61.00
7309;BME280;3695;53.330;9.876;2023-12-29T01:59:40;99371.56;;;13.41;61.48
7309;BME280;3695;53.330;9.876;2023-12-29T02:02:09;99367.09;;;13.49;61.00
7309;BME280;3695;53.330;9.876;2023-12-29T02:04:36;99370.69;;;13.40;61.50
7309;BME280;3695;53.330;9.876;2023-12-29T02:07:03;99362.66;;;13.54;61.11
7309;BME280;3695;53.330;9.876;2023-12-29T02:09:30;99353.16;;;13.33;62.12
7309;BME280;3695;53.330;9.876;2023-12-29T02:11:59;99360.16;;;13.39;61.79
7309;BME280;3695;53.330;9.876;2023-12-29T02:14:25;99359.38;;;13.28;62.04
7309;BME280;3695;53.330;9.876;2023-12-29T02:16:58;99352.41;;;13.24;62.06
7309;BME280;3695;53.330;9.876;2023-12-29T02:19:39;99340.03;;;13.29;61.88
7309;BME280;3695;53.330;9.876;2023-12-29T02:22:06;99354.00;;;13.38;61.99
7309;BME280;3695;53.330;9.876;2023-12-29T02:24:34;99339.97;;;13.35;61.78
7309;BME280;3695;53.330;9.876;2023-12-29T02:27:13;99331.13;;;13.39;61.84
7309;BME280;3695;53.330;9.876;2023-12-29T02:29:46;99324.13;;;13.38;62.01
7309;BME280;3695;53.330;9.876;2023-12-29T02:32:18;99317.13;;;13.34;62.12
7309;BME280;3695;53.330;9.876;2023-12-29T02:34:47;99327.88;;;13.10;62.48
7309;BME280;3695;53.330;9.876;2023-12-29T02:37:15;99320.81;;;13.15;62.38
7309;BME280;3695;53.330;9.876;2023-12-29T02:39:42;99317.22;;;13.23;62.64
7309;BME280;3695;53.330;9.876;2023-12-29T02:42:10;99316.41;;;13.15;62.95
7309;BME280;3695;53.330;9.876;2023-12-29T02:44:36;99304.09;;;13.16;63.03
7309;BME280;3695;53.330;9.876;2023-12-29T02:47:03;99303.28;;;13.08;62.96
7309;BME280;3695;53.330;9.876;2023-12-29T02:49:30;99303.28;;;13.08;63.14
7309;BME280;3695;53.330;9.876;2023-12-29T02:51:57;99298.03;;;13.03;62.89
7309;BME280;3695;53.330;9.876;2023-12-29T02:54:23;99296.31;;;13.00;63.32
7309;BME280;3695;53.330;9.876;2023-12-29T02:56:50;99295.53;;;12.91;63.53
7309;BME280;3695;53.330;9.876;2023-12-29T02:59:17;99293.88;;;12.81;63.94
7309;BME280;3695;53.330;9.876;2023-12-29T03:01:44;99326.50;;;12.63;64.32
7309;BME280;3695;53.330;9.876;2023-12-29T03:04:11;99302.94;;;12.43;65.37
7309;BME280;3695;53.330;9.876;2023-12-29T03:06:38;99314.47;;;12.26;65.78
7309;BME280;3695;53.330;9.876;2023-12-29T03:09:04;99315.31;;;12.32;66.21
7309;BME280;3695;53.330;9.876;2023-12-29T03:11:31;99310.09;;;12.24;66.70
7309;BME280;3695;53.330;9.876;2023-12-29T03:13:58;99309.16;;;12.35;66.94
7309;BME280;3695;53.330;9.876;2023-12-29T03:16:25;99334.69;;;12.19;67.50
7309;BME280;3695;53.330;9.876;2023-12-29T03:18:52;99335.47;;;12.39;67.54
7309;BME280;3695;53.330;9.876;2023-12-29T03:21:18;99300.31;;;12.42;67.47
7309;BME280;3695;53.330;9.876;2023-12-29T03:23:46;99283.75;;;12.24;67.92
7309;BME280;3695;53.330;9.876;2023-12-29T03:26:12;99266.22;;;12.23;68.11
7309;BME280;3695;53.330;9.876;2023-12-29T03:28:39;99277.59;;;12.29;68.23
7309;BME280;3695;53.330;9.876;2023-12-29T03:31:05;99289.00;;;12.24;68.22
7309;BME280;3695;53.330;9.876;2023-12-29T03:33:33;99267.06;;;12.27;68.40
7309;BME280;3695;53.330;9.876;2023-12-29T03:36:00;99253.00;;;12.28;68.57
7309;BME280;3695;53.330;9.876;2023-12-29T03:38:26;99243.34;;;12.27;68.44
7309;BME280;3695;53.330;9.876;2023-12-29T03:40:53;99238.09;;;12.27;68.51
7309;BME280;3695;53.330;9.876;2023-12-29T03:43:19;99235.41;;;12.35;68.16
7309;BME280;3695;53.330;9.876;2023-12-29T03:45:46;99248.50;;;12.42;68.21
7309;BME280;3695;53.330;9.876;2023-12-29T03:48:12;99243.25;;;12.39;68.10
7309;BME280;3695;53.330;9.876;2023-12-29T03:50:40;99233.59;;;12.41;68.13
7309;BME280;3695;53.330;9.876;2023-12-29T03:53:07;99254.63;;;12.46;68.03
7309;BME280;3695;53.330;9.876;2023-12-29T03:55:33;99256.41;;;12.44;68.25
7309;BME280;3695;53.330;9.876;2023-12-29T03:58:00;99248.47;;;12.45;67.89
7309;BME280;3695;53.330;9.876;2023-12-29T04:00:28;99229.16;;;12.46;68.06
7309;BME280;3695;53.330;9.876;2023-12-29T04:02:54;99233.69;;;12.29;68.46
7309;BME280;3695;53.330;9.876;2023-12-29T04:05:21;99244.16;;;12.37;68.48
7309;BME280;3695;53.330;9.876;2023-12-29T04:07:49;99251.31;;;12.21;68.67
7309;BME280;3695;53.330;9.876;2023-12-29T04:10:15;99246.88;;;12.26;68.80
7309;BME280;3695;53.330;9.876;2023-12-29T04:12:42;99279.47;;;12.08;69.35
7309;BME280;3695;53.330;9.876;2023-12-29T04:15:09;99316.41;;;11.96;69.55
7309;BME280;3695;53.330;9.876;2023-12-29T04:17:35;99392.91;;;11.00;69.81
7309;BME280;3695;53.330;9.876;2023-12-29T04:20:02;99388.22;;;9.89;69.81
7309;BME280;3695;53.330;9.876;2023-12-29T04:22:29;99370.63;;;9.63;70.67
7309;BME280;3695;53.330;9.876;2023-12-29T04:24:57;99354.06;;;9.73;70.50
7309;BME280;3695;53.330;9.876;2023-12-29T04:27:24;99340.16;;;9.93;69.91
7309;BME280;3695;53.330;9.876;2023-12-29T04:29:51;99336.63;;;9.88;69.66
7309;BME280;3695;53.330;9.876;2023-12-29T04:32:17;99325.31;;;10.08;69.38
7309;BME280;3695;53.330;9.876;2023-12-29T04:34:44;99335.81;;;10.13;68.35
7309;BME280;3695;53.330;9.876;2023-12-29T04:37:10;99318.38;;;10.18;68.38
7309;BME280;3695;53.330;9.876;2023-12-29T04:39:38;99320.03;;;10.01;68.26
7309;BME280;3695;53.330;9.876;2023-12-29T04:42:05;99304.38;;;10.20;68.03
7309;BME280;3695;53.330;9.876;2023-12-29T04:44:32;99323.63;;;10.18;68.26
7309;BME280;3695;53.330;9.876;2023-12-29T04:46:59;99313.06;;;10.09;68.33
7309;BME280;3695;53.330;9.876;2023-12-29T04:49:25;99320.09;;;10.16;67.99
7309;BME280;3695;53.330;9.876;2023-12-29T04:51:52;99331.47;;;10.12;67.54
7309;BME280;3695;53.330;9.876;2023-12-29T04:54:18;99332.38;;;10.22;67.65
7309;BME280;3695;53.330;9.876;2023-12-29T04:56:45;99339.28;;;10.03;68.23
7309;BME280;3695;53.330;9.876;2023-12-29T04:59:12;99337.66;;;10.35;67.87
7309;BME280;3695;53.330;9.876;2023-12-29T05:01:39;99314.00;;;10.22;68.04
7309;BME280;3695;53.330;9.876;2023-12-29T05:04:05;99310.53;;;10.38;68.17
7309;BME280;3695;53.330;9.876;2023-12-29T05:06:32;99310.47;;;10.12;67.97
7309;BME280;3695;53.330;9.876;2023-12-29T05:08:58;99321.91;;;10.29;67.82
7309;BME280;3695;53.330;9.876;2023-12-29T05:11:25;99315.81;;;10.42;68.24
7309;BME280;3695;53.330;9.876;2023-12-29T05:13:52;99294.78;;;10.45;68.39
7309;BME280;3695;53.330;9.876;2023-12-29T05:16:20;99285.13;;;10.32;68.70
7309;BME280;3695;53.330;9.876;2023-12-29T05:18:46;99300.88;;;10.26;68.16
7309;BME280;3695;53.330;9.876;2023-12-29T05:21:16;99298.28;;;10.46;68.38
7309;BME280;3695;53.330;9.876;2023-12-29T05:23:43;99313.19;;;10.42;68.10
7309;BME280;3695;53.330;9.876;2023-12-29T05:26:10;99297.41;;;10.51;68.88
7309;BME280;3695;53.330;9.876;2023-12-29T05:28:37;99288.66;;;10.57;68.32
7309;BME280;3695;53.330;9.876;2023-12-29T05:31:04;99295.66;;;10.69;69.04
7309;BME280;3695;53.330;9.876;2023-12-29T05:33:31;99286.03;;;10.65;68.67
7309;BME280;3695;53.330;9.876;2023-12-29T05:35:59;99284.28;;;10.60;68.43
7309;BME280;3695;53.330;9.876;2023-12-29T05:38:26;99286.91;;;10.45;68.46
7309;BME280;3695;53.330;9.876;2023-12-29T05:40:52;99294.81;;;10.79;68.70
7309;BME280;3695;53.330;9.876;2023-12-29T05:43:19;99291.25;;;10.80;68.25
7309;BME280;3695;53.330;9.876;2023-12-29T05:45:45;99290.41;;;10.75;68.83
7309;BME280;3695;53.330;9.876;2023-12-29T05:48:12;99300.91;;;10.70;68.84
7309;BME280;3695;53.330;9.876;2023-12-29T05:50:40;99292.16;;;10.82;68.42
7309;BME280;3695;53.330;9.876;2023-12-29T05:53:06;99286.88;;;10.95;68.52
7309;BME280;3695;53.330;9.876;2023-12-29T05:55:33;99293.88;;;10.86;68.35
7309;BME280;3695;53.330;9.876;2023-12-29T05:57:59;99282.53;;;10.84;68.48
7309;BME280;3695;53.330;9.876;2023-12-29T06:00:26;99279.03;;;10.77;68.69
7309;BME280;3695;53.330;9.876;2023-12-29T06:02:53;99277.28;;;10.70;68.04
7309;BME280;3695;53.330;9.876;2023-12-29T06:05:19;99279.91;;;10.84;68.50
7309;BME280;3695;53.330;9.876;2023-12-29T06:07:47;99268.47;;;11.05;68.28
7309;BME280;3695;53.330;9.876;2023-12-29T06:10:14;99281.66;;;10.91;68.36
7309;BME280;3695;53.330;9.876;2023-12-29T06:12:40;99290.41;;;10.90;68.32
7309;BME280;3695;53.330;9.876;2023-12-29T06:15:08;99293.03;;;10.90;68.26
7309;BME280;3695;53.330;9.876;2023-12-29T06:17:34;99291.25;;;11.04;68.15
7309;BME280;3695;53.330;9.876;2023-12-29T06:20:01;99292.16;;;10.95;68.32
7309;BME280;3695;53.330;9.876;2023-12-29T06:22:30;99295.66;;;10.96;68.48
7309;BME280;3695;53.330;9.876;2023-12-29T06:24:58;99284.25;;;10.86;68.97
7309;BME280;3695;53.330;9.876;2023-12-29T06:27:25;99289.53;;;10.88;69.33
7309;BME280;3695;53.330;9.876;2023-12-29T06:29:53;99284.25;;;11.01;68.70
7309;BME280;3695;53.330;9.876;2023-12-29T06:32:19;99290.38;;;11.07;68.85
7309;BME280;3695;53.330;9.876;2023-12-29T06:34:46;99299.06;;;11.34;68.88
7309;BME280;3695;53.330;9.876;2023-12-29T06:37:13;99293.75;;;11.56;68.77
7309;BME280;3695;53.330;9.876;2023-12-29T06:39:39;99302.53;;;11.56;68.60
7309;BME280;3695;53.330;9.876;2023-12-29T06:42:07;99300.72;;;11.66;68.33
7309;BME280;3695;53.330;9.876;2023-12-29T06:44:34;99305.94;;;11.72;68.53
7309;BME280;3695;53.330;9.876;2023-12-29T06:47:00;99311.22;;;11.81;68.41
7309;BME280;3695;53.330;9.876;2023-12-29T06:49:30;99312.13;;;11.66;68.29
7309;BME280;3695;53.330;9.876;2023-12-29T06:51:57;99306.81;;;11.71;68.19
7309;BME280;3695;53.330;9.876;2023-12-29T06:54:23;99304.19;;;11.80;68.05
7309;BME280;3695;53.330;9.876;2023-12-29T06:56:50;99312.09;;;11.75;68.10
7309;BME280;3695;53.330;9.876;2023-12-29T06:59:18;99308.59;;;11.81;68.10
7309;BME280;3695;53.330;9.876;2023-12-29T07:01:45;99312.03;;;11.91;67.97
7309;BME280;3695;53.330;9.876;2023-12-29T07:04:11;99310.38;;;11.74;68.38
7309;BME280;3695;53.330;9.876;2023-12-29T07:06:39;99303.22;;;11.96;67.96
7309;BME280;3695;53.330;9.876;2023-12-29T07:09:05;99311.22;;;11.81;67.88
7309;BME280;3695;53.330;9.876;2023-12-29T07:11:33;99312.00;;;11.95;67.79
7309;BME280;3695;53.330;9.876;2023-12-29T07:13:59;99323.44;;;11.93;67.96
7309;BME280;3695;53.330;9.876;2023-12-29T07:16:27;99323.44;;;11.91;67.75
7309;BME280;3695;53.330;9.876;2023-12-29T07:18:54;99322.53;;;11.97;67.73
7309;BME280;3695;53.330;9.876;2023-12-29T07:21:21;99303.31;;;11.86;67.66
7309;BME280;3695;53.330;9.876;2023-12-29T07:23:47;99313.78;;;11.99;67.70
7309;BME280;3695;53.330;9.876;2023-12-29T07:26:14;99314.66;;;11.98;67.55
7309;BME280;3695;53.330;9.876;2023-12-29T07:28:40;99304.19;;;11.86;67.50
7309;BME280;3695;53.330;9.876;2023-12-29T07:31:07;99307.69;;;11.83;67.80
7309;BME280;3695;53.330;9.876;2023-12-29T07:33:35;99318.19;;;11.90;67.70
7309;BME280;3695;53.330;9.876;2023-12-29T07:36:02;99311.09;;;12.05;67.28
7309;BME280;3695;53.330;9.876;2023-12-29T07:38:28;99311.97;;;12.04;67.28
7309;BME280;3695;53.330;9.876;2023-12-29T07:40:55;99311.94;;;12.10;67.06
7309;BME280;3695;53.330;9.876;2023-12-29T07:43:20;99324.31;;;11.99;66.94
7309;BME280;3695;53.330;9.876;2023-12-29T07:45:47;99320.00;;;11.80;66.92
7309;BME280;3695;53.330;9.876;2023-12-29T07:48:13;99318.19;;;11.88;67.02
7309;BME280;3695;53.330;9.876;2023-12-29T07:50:42;99327.78;;;12.01;67.01
7309;BME280;3695;53.330;9.876;2023-12-29T07:53:08;99321.69;;;11.92;67.16
7309;BME280;3695;53.330;9.876;2023-12-29T07:55:37;99314.69;;;11.83;67.43
7309;BME280;3695;53.330;9.876;2023-12-29T07:58:04;99317.34;;;11.83;67.26
7309;BME280;3695;53.330;9.876;2023-12-29T08:00:31;99322.59;;;11.81;67.44
7309;BME280;3695;53.330;9.876;2023-12-29T08:02:57;99327.81;;;11.98;66.82
7309;BME280;3695;53.330;9.876;2023-12-29T08:05:24;99311.22;;;11.76;66.92
7309;BME280;3695;53.330;9.876;2023-12-29T08:07:52;99318.09;;;12.06;66.90
7309;BME280;3695;53.330;9.876;2023-12-29T08:10:20;99305.81;;;12.07;66.70
7309;BME280;3695;53.330;9.876;2023-12-29T08:12:46;99325.13;;;12.07;66.52
7309;BME280;3695;53.330;9.876;2023-12-29T08:15:13;99318.97;;;12.11;66.35
7309;BME280;3695;53.330;9.876;2023-12-29T08:17:39;99325.13;;;12.07;66.56
7309;BME280;3695;53.330;9.876;2023-12-29T08:20:07;99320.72;;;12.11;66.32
7309;BME280;3695;53.330;9.876;2023-12-29T08:22:34;99312.84;;;12.03;66.40
7309;BME280;3695;53.330;9.876;2023-12-29T08:25:03;99311.97;;;12.03;66.27
7309;BME280;3695;53.330;9.876;2023-12-29T08:27:29;99308.56;;;11.86;66.34
7309;BME280;3695;53.330;9.876;2023-12-29T08:29:56;99315.56;;;11.91;66.66
7309;BME280;3695;53.330;9.876;2023-12-29T08:32:22;99318.13;;;12.00;66.13
7309;BME280;3695;53.330;9.876;2023-12-29T08:34:49;99313.75;;;11.96;66.36
7309;BME280;3695;53.330;9.876;2023-12-29T08:37:16;99305.84;;;12.02;66.35
7309;BME280;3695;53.330;9.876;2023-12-29T08:39:45;99313.75;;;12.01;66.30
7309;BME280;3695;53.330;9.876;2023-12-29T08:42:13;99321.63;;;12.02;66.38
7309;BME280;3695;53.330;9.876;2023-12-29T08:44:40;99319.06;;;11.89;66.26
7309;BME280;3695;53.330;9.876;2023-12-29T08:47:07;99320.78;;;11.99;66.27
7309;BME280;3695;53.330;9.876;2023-12-29T08:49:34;99330.41;;;12.01;66.33
7309;BME280;3695;53.330;9.876;2023-12-29T08:52:01;99323.38;;;12.03;66.22
7309;BME280;3695;53.330;9.876;2023-12-29T08:54:28;99327.72;;;12.13;66.01
7309;BME280;3695;53.330;9.876;2023-12-29T08:56:54;99330.31;;;12.22;65.89
7309;BME280;3695;53.330;9.876;2023-12-29T08:59:22;99331.19;;;12.18;65.81
7309;BME280;3695;53.330;9.876;2023-12-29T09:01:49;99342.59;;;12.23;65.88
7309;BME280;3695;53.330;9.876;2023-12-29T09:04:15;99312.69;;;12.34;65.65
7309;BME280;3695;53.330;9.876;2023-12-29T09:06:42;99325.81;;;12.40;64.92
7309;BME280;3695;53.330;9.876;2023-12-29T09:09:08;99301.19;;;12.44;64.87
7309;BME280;3695;53.330;9.876;2023-12-29T09:11:38;99327.44;;;12.54;64.60
7309;BME280;3695;53.330;9.876;2023-12-29T09:14:04;99331.91;;;12.42;64.73
7309;BME280;3695;53.330;9.876;2023-12-29T09:16:34;99318.72;;;12.48;64.38
7309;BME280;3695;53.330;9.876;2023-12-29T09:19:01;99328.53;;;12.29;64.60
7309;BME280;3695;53.330;9.876;2023-12-29T09:21:28;99322.22;;;12.48;64.68
7309;BME280;3695;53.330;9.876;2023-12-29T09:23:55;99307.41;;;12.35;65.06
7309;BME280;3695;53.330;9.876;2023-12-29T09:26:21;99328.56;;;12.21;65.47
7309;BME280;3695;53.330;9.876;2023-12-29T09:28:48;99324.19;;;12.13;65.56
7309;BME280;3695;53.330;9.876;2023-12-29T09:31:14;99345.34;;;12.02;66.35
7309;BME280;3695;53.330;9.876;2023-12-29T09:33:43;99375.97;;;12.18;66.39
7309;BME280;3695;53.330;9.876;2023-12-29T09:36:09;99385.72;;;11.97;66.55
7309;BME280;3695;53.330;9.876;2023-12-29T09:38:36;99366.59;;;11.03;65.82
7309;BME280;3695;53.330;9.876;2023-12-29T09:41:05;99382.38;;;10.72;66.24
7309;BME280;3695;53.330;9.876;2023-12-29T09:43:36;99377.97;;;10.58;65.33
7309;BME280;3695;53.330;9.876;2023-12-29T09:46:03;99402.50;;;10.59;65.68
7309;BME280;3695;53.330;9.876;2023-12-29T09:48:31;99393.53;;;9.99;66.97
7309;BME280;3695;53.330;9.876;2023-12-29T09:51:02;99386.53;;;10.07;67.65
7309;BME280;3695;53.330;9.876;2023-12-29T09:53:30;99355.19;;;10.57;67.08
7309;BME280;3695;53.330;9.876;2023-12-29T09:55:57;99353.47;;;10.66;66.73
7309;BME280;3695;53.330;9.876;2023-12-29T09:58:26;99349.09;;;10.84;66.64
7309;BME280;3695;53.330;9.876;2023-12-29T10:00:53;99346.47;;;11.02;66.54
7309;BME280;3695;53.330;9.876;2023-12-29T10:03:19;99355.22;;;10.94;66.57
7309;BME280;3695;53.330;9.876;2023-12-29T10:05:50;99342.06;;;11.12;66.82
7309;BME280;3695;53.330;9.876;2023-12-29T10:08:20;99345.56;;;11.19;66.83
7309;BME280;3695;53.330;9.876;2023-12-29T10:10:48;99334.13;;;11.33;66.61
7309;BME280;3695;53.330;9.876;2023-12-29T10:13:17;99343.75;;;11.51;66.70
7309;BME280;3695;53.330;9.876;2023-12-29T10:15:49;99351.63;;;11.47;66.66
7309;BME280;3695;53.330;9.876;2023-12-29T10:18:22;99343.72;;;11.59;66.67
7309;BME280;3695;53.330;9.876;2023-12-29T10:20:57;99352.50;;;11.56;66.63
7309;BME280;3695;53.330;9.876;2023-12-29T10:23:32;99347.25;;;11.50;67.12
7309;BME280;3695;53.330;9.876;2023-12-29T10:26:01;99348.06;;;11.66;67.00
7309;BME280;3695;53.330;9.876;2023-12-29T10:28:28;99356.84;;;11.77;66.61
7309;BME280;3695;53.330;9.876;2023-12-29T10:30:55;99348.06;;;11.81;66.35
7309;BME280;3695;53.330;9.876;2023-12-29T10:33:21;99348.03;;;11.82;66.46
7309;BME280;3695;53.330;9.876;2023-12-29T10:35:59;99341.00;;;11.89;66.55
7309;BME280;3695;53.330;9.876;2023-12-29T10:38:29;99351.56;;;11.86;66.20
7309;BME280;3695;53.330;9.876;2023-12-29T10:41:10;99337.50;;;11.90;66.26
7309;BME280;3695;53.330;9.876;2023-12-29T10:43:36;99352.31;;;12.06;65.81
7309;BME280;3695;53.330;9.876;2023-12-29T10:46:06;99346.22;;;12.04;65.73
7309;BME280;3695;53.330;9.876;2023-12-29T10:48:33;99337.50;;;11.93;65.62
7309;BME280;3695;53.330;9.876;2023-12-29T10:51:00;99347.09;;;12.02;65.62
7309;BME280;3695;53.330;9.876;2023-12-29T10:53:31;99355.00;;;11.97;65.82
7309;BME280;3695;53.330;9.876;2023-12-29T10:55:57;99352.47;;;11.80;66.02
7309;BME280;3695;53.330;9.876;2023-12-29T10:58:24;99342.81;;;11.81;65.94
7309;BME280;3695;53.330;9.876;2023-12-29T11:00:53;99339.25;;;11.91;65.95
7309;BME280;3695;53.330;9.876;2023-12-29T11:03:19;99326.09;;;11.83;66.16
7309;BME280;3695;53.330;9.876;2023-12-29T11:05:46;99334.78;;;12.01;66.09
7309;BME280;3695;53.330;9.876;2023-12-29T11:08:18;99319.94;;;11.92;66.11
7309;BME280;3695;53.330;9.876;2023-12-29T11:10:48;99328.66;;;12.00;66.00
7309;BME280;3695;53.330;9.876;2023-12-29T11:13:15;99314.66;;;11.88;66.07
7309;BME280;3695;53.330;9.876;2023-12-29T11:15:42;99312.81;;;12.06;66.28
7309;BME280;3695;53.330;9.876;2023-12-29T11:18:13;99323.25;;;12.24;65.94
7309;BME280;3695;53.330;9.876;2023-12-29T11:20:40;99306.69;;;12.10;65.99
7309;BME280;3695;53.330;9.876;2023-12-29T11:23:09;99311.91;;;12.13;65.80
7309;BME280;3695;53.330;9.876;2023-12-29T11:25:36;99317.22;;;12.06;66.08
7309;BME280;3695;53.330;9.876;2023-12-29T11:28:06;99319.09;;;11.87;65.83
7309;BME280;3695;53.330;9.876;2023-12-29T11:30:34;99312.09;;;11.80;65.85
7309;BME280;3695;53.330;9.876;2023-12-29T11:33:07;99312.91;;;11.93;65.41
7309;BME280;3695;53.330;9.876;2023-12-29T11:35:41;99317.34;;;11.86;65.11
7309;BME280;3695;53.330;9.876;2023-12-29T11:38:26;99314.63;;;12.01;64.96
7309;BME280;3695;53.330;9.876;2023-12-29T11:41:02;99319.03;;;11.99;65.08
7309;BME280;3695;53.330;9.876;2023-12-29T11:43:33;99313.75;;;12.01;64.93
7309;BME280;3695;53.330;9.876;2023-12-29T11:46:00;99311.13;;;11.96;64.99
7309;BME280;3695;53.330;9.876;2023-12-29T11:48:55;99317.31;;;11.91;65.16
7309;BME280;3695;53.330;9.876;2023-12-29T11:51:29;99315.53;;;11.99;65.17
7309;BME280;3695;53.330;9.876;2023-12-29T11:53:56;99313.78;;;11.92;65.04
7309;BME280;3695;53.330;9.876;2023-12-29T11:56:23;99320.81;;;11.90;64.99
7309;BME280;3695;53.330;9.876;2023-12-29T11:58:51;99300.63;;;11.93;64.81
7309;BME280;3695;53.330;9.876;2023-12-29T12:01:33;99318.13;;;12.05;64.62
7309;BME280;3695;53.330;9.876;2023-12-29T12:04:00;99302.41;;;11.91;64.57
7309;BME280;3695;53.330;9.876;2023-12-29T12:06:36;99313.75;;;11.95;64.39
7309;BME280;3695;53.330;9.876;2023-12-29T12:09:16;99310.25;;;11.94;64.64
7309;BME280;3695;53.330;9.876;2023-12-29T12:11:43;99307.66;;;11.91;64.64
7309;BME280;3695;53.330;9.876;2023-12-29T12:14:44;99324.28;;;12.02;64.40
7309;BME280;3695;53.330;9.876;2023-12-29T12:17:11;99304.13;;;11.97;64.62
7309;BME280;3695;53.330;9.876;2023-12-29T12:19:37;99307.63;;;11.94;64.29
7309;BME280;3695;53.330;9.876;2023-12-29T12:22:06;99314.66;;;11.95;64.87
7309;BME280;3695;53.330;9.876;2023-12-29T12:24:35;99316.38;;;12.05;64.49
7309;BME280;3695;53.330;9.876;2023-12-29T12:27:03;99309.38;;;11.94;64.56
7309;BME280;3695;53.330;9.876;2023-12-29T12:29:31;99304.19;;;11.86;64.75
7309;BME280;3695;53.330;9.876;2023-12-29T12:31:57;99313.78;;;11.90;64.79
7309;BME280;3695;53.330;9.876;2023-12-29T12:34:25;99299.78;;;11.87;65.00
7309;BME280;3695;53.330;9.876;2023-12-29T12:36:52;99289.28;;;11.80;65.07
7309;BME280;3695;53.330;9.876;2023-12-29T12:39:21;99288.34;;;11.89;65.15
7309;BME280;3695;53.330;9.876;2023-12-29T12:41:49;99289.25;;;11.87;65.29
7309;BME280;3695;53.330;9.876;2023-12-29T12:44:15;99292.78;;;11.76;65.27
7309;BME280;3695;53.330;9.876;2023-12-29T12:46:49;99290.13;;;11.84;65.41
7309;BME280;3695;53.330;9.876;2023-12-29T12:49:17;99284.00;;;11.85;65.48
7309;BME280;3695;53.330;9.876;2023-12-29T12:51:44;99283.16;;;11.78;65.17
7309;BME280;3695;53.330;9.876;2023-12-29T12:54:12;99274.34;;;11.87;65.31
7309;BME280;3695;53.330;9.876;2023-12-29T12:56:41;99284.91;;;11.79;65.39
7309;BME280;3695;53.330;9.876;2023-12-29T12:59:08;99270.88;;;11.76;65.35
7309;BME280;3695;53.330;9.876;2023-12-29T13:01:36;99270.81;;;11.91;65.41
7309;BME280;3695;53.330;9.876;2023-12-29T13:04:04;99266.38;;;11.95;65.28
7309;BME280;3695;53.330;9.876;2023-12-29T13:06:32;99260.28;;;11.93;65.37
7309;BME280;3695;53.330;9.876;2023-12-29T13:08:59;99271.59;;;12.02;65.20
7309;BME280;3695;53.330;9.876;2023-12-29T13:11:27;99273.44;;;11.93;64.87
7309;BME280;3695;53.330;9.876;2023-12-29T13:13:54;99271.50;;;12.19;64.66
7309;BME280;3695;53.330;9.876;2023-12-29T13:16:31;99271.50;;;12.22;64.30
7309;BME280;3695;53.330;9.876;2023-12-29T13:19:17;99277.78;;;11.94;64.33
7309;BME280;3695;53.330;9.876;2023-12-29T13:21:48;99278.63;;;12.02;64.35
7309;BME280;3695;53.330;9.876;2023-12-29T13:24:15;99280.41;;;11.94;64.13
7309;BME280;3695;53.330;9.876;2023-12-29T13:26:44;99280.41;;;11.95;63.98